sensor_id;sensor_type;location;lat;lon;timestamp;P1;durP1;ratioP1;P2;durP2;ratioP2
11522;SDS011;70090;43.208;27.904;2024-01-30T00:02:13;21.80;;;12.90;;
11522;SDS011;70090;43.208;27.904;2024-01-30T00:04:40;20.27;;;11.53;;
11522;SDS011;70090;43.208;27.904;2024-01-30T00:07:09;20.97;;;14.33;;
11522;SDS011;70090;43.208;27.904;2024-01-30T00:09:36;22.33;;;13.57;;
11522;SDS011;70090;43.208;27.904;2024-01-30T00:12:03;18.30;;;10.40;;
11522;SDS011;70090;43.208;27.904;2024-01-30T00:14:30;24.93;;;14.20;;
11522;SDS011;70090;43.208;27.904;2024-01-30T00:16:57;22.67;;;13.70;;
11522;SDS011;70090;43.208;27.904;2024-01-30T00:19:24;24.43;;;14.40;;
11522;SDS011;70090;43.208;27.904;2024-01-30T00:21:51;21.73;;;14.20;;
11522;SDS011;70090;43.208;27.904;2024-01-30T00:24:19;25.80;;;14.77;;
11522;SDS011;70090;43.208;27.904;2024-01-30T00:26:46;23.70;;;15.03;;
11522;SDS011;70090;43.208;27.904;2024-01-30T00:29:13;22.37;;;14.60;;
11522;SDS011;70090;43.208;27.904;2024-01-30T00:31:44;22.87;;;14.27;;
11522;SDS011;70090;43.208;27.904;2024-01-30T00:34:12;24.03;;;14.97;;
11522;SDS011;70090;43.208;27.904;2024-01-30T00:36:39;23.93;;;14.80;;
11522;SDS011;70090;43.208;27.904;2024-01-30T00:39:06;21.77;;;13.97;;
11522;SDS011;70090;43.208;27.904;2024-01-30T00:41:35;22.30;;;13.03;;
11522;SDS011;70090;43.208;27.904;2024-01-30T00:44:02;19.83;;;13.73;;
11522;SDS011;70090;43.208;27.904;2024-01-30T00:46:30;21.27;;;13.97;;
11522;SDS011;70090;43.208;27.904;2024-01-30T00:48:57;22.80;;;14.67;;
11522;SDS011;70090;43.208;27.904;2024-01-30T00:51:24;22.53;;;14.00;;
11522;SDS011;70090;43.208;27.904;2024-01-30T00:53:51;22.63;;;13.37;;
11522;SDS011;70090;43.208;27.904;2024-01-30T00:56:19;23.27;;;14.37;;
11522;SDS011;70090;43.208;27.904;2024-01-30T00:58:47;26.00;;;13.67;;
11522;SDS011;70090;43.208;27.904;2024-01-30T01:01:15;22.83;;;14.90;;
11522;SDS011;70090;43.208;27.904;2024-01-30T01:03:42;24.77;;;15.57;;
11522;SDS011;70090;43.208;27.904;2024-01-30T01:06:09;21.73;;;14.00;;
11522;SDS011;70090;43.208;27.904;2024-01-30T01:08:36;23.17;;;14.20;;
11522;SDS011;70090;43.208;27.904;2024-01-30T01:11:03;25.10;;;15.60;;
11522;SDS011;70090;43.208;27.904;2024-01-30T01:13:30;23.10;;;14.30;;
11522;SDS011;70090;43.208;27.904;2024-01-30T01:15:59;22.73;;;14.23;;
11522;SDS011;70090;43.208;27.904;2024-01-30T01:18:26;22.53;;;14.17;;
11522;SDS011;70090;43.208;27.904;2024-01-30T01:20:53;21.37;;;12.53;;
11522;SDS011;70090;43.208;27.904;2024-01-30T01:23:20;23.67;;;14.63;;
11522;SDS011;70090;43.208;27.904;2024-01-30T01:25:47;25.10;;;13.20;;
11522;SDS011;70090;43.208;27.904;2024-01-30T01:28:14;26.07;;;15.27;;
11522;SDS011;70090;43.208;27.904;2024-01-30T01:30:41;23.57;;;14.10;;
11522;SDS011;70090;43.208;27.904;2024-01-30T01:33:10;19.40;;;11.87;;
11522;SDS011;70090;43.208;27.904;2024-01-30T01:35:39;24.90;;;13.93;;
11522;SDS011;70090;43.208;27.904;2024-01-30T01:38:06;22.37;;;14.80;;
11522;SDS011;70090;43.208;27.904;2024-01-30T01:40:33;24.23;;;14.87;;
11522;SDS011;70090;43.208;27.904;2024-01-30T01:43:02;23.97;;;15.13;;
11522;SDS011;70090;43.208;27.904;2024-01-30T01:45:30;25.03;;;14.97;;
11522;SDS011;70090;43.208;27.904;2024-01-30T01:47:57;27.33;;;14.37;;
11522;SDS011;70090;43.208;27.904;2024-01-30T01:50:25;23.67;;;14.80;;
11522;SDS011;70090;43.208;27.904;2024-01-30T01:52:53;23.20;;;14.53;;
11522;SDS011;70090;43.208;27.904;2024-01-30T01:55:21;20.83;;;13.80;;
11522;SDS011;70090;43.208;27.904;2024-01-30T01:57:50;21.27;;;13.50;;
11522;SDS011;70090;43.208;27.904;2024-01-30T02:00:19;22.80;;;13.43;;
11522;SDS011;70090;43.208;27.904;2024-01-30T02:02:46;22.57;;;14.07;;
11522;SDS011;70090;43.208;27.904;2024-01-30T02:05:14;20.97;;;12.97;;
11522;SDS011;70090;43.208;27.904;2024-01-30T02:07:43;25.07;;;14.37;;
11522;SDS011;70090;43.208;27.904;2024-01-30T02:10:10;22.40;;;13.50;;
11522;SDS011;70090;43.208;27.904;2024-01-30T02:12:38;24.20;;;13.77;;
11522;SDS011;70090;43.208;27.904;2024-01-30T02:15:05;23.83;;;14.00;;
11522;SDS011;70090;43.208;27.904;2024-01-30T02:17:33;23.33;;;14.47;;
11522;SDS011;70090;43.208;27.904;2024-01-30T02:20:00;26.20;;;15.53;;
11522;SDS011;70090;43.208;27.904;2024-01-30T02:22:30;22.83;;;14.47;;
11522;SDS011;70090;43.208;27.904;2024-01-30T02:24:59;22.67;;;13.90;;
11522;SDS011;70090;43.208;27.904;2024-01-30T02:27:26;21.00;;;13.43;;
11522;SDS011;70090;43.208;27.904;2024-01-30T02:29:53;21.27;;;13.40;;
11522;SDS011;70090;43.208;27.904;2024-01-30T02:32:20;22.97;;;12.40;;
11522;SDS011;70090;43.208;27.904;2024-01-30T02:34:47;23.13;;;14.50;;
11522;SDS011;70090;43.208;27.904;2024-01-30T02:37:14;22.43;;;14.53;;
11522;SDS011;70090;43.208;27.904;2024-01-30T02:39:42;21.07;;;13.60;;
11522;SDS011;70090;43.208;27.904;2024-01-30T02:42:09;22.23;;;13.87;;
11522;SDS011;70090;43.208;27.904;2024-01-30T02:44:36;25.50;;;14.97;;
11522;SDS011;70090;43.208;27.904;2024-01-30T02:47:03;22.90;;;13.93;;
11522;SDS011;70090;43.208;27.904;2024-01-30T02:49:31;23.50;;;14.73;;
11522;SDS011;70090;43.208;27.904;2024-01-30T02:51:58;21.33;;;14.13;;
11522;SDS011;70090;43.208;27.904;2024-01-30T02:54:25;22.33;;;14.30;;
11522;SDS011;70090;43.208;27.904;2024-01-30T02:56:53;24.40;;;14.00;;
11522;SDS011;70090;43.208;27.904;2024-01-30T02:59:20;22.80;;;14.03;;
11522;SDS011;70090;43.208;27.904;2024-01-30T03:01:47;23.07;;;13.70;;
11522;SDS011;70090;43.208;27.904;2024-01-30T03:04:14;23.10;;;13.73;;
11522;SDS011;70090;43.208;27.904;2024-01-30T03:06:44;21.83;;;13.00;;
11522;SDS011;70090;43.208;27.904;2024-01-30T03:09:12;21.53;;;13.63;;
11522;SDS011;70090;43.208;27.904;2024-01-30T03:11:38;20.23;;;10.97;;
11522;SDS011;70090;43.208;27.904;2024-01-30T03:14:07;22.37;;;13.10;;
11522;SDS011;70090;43.208;27.904;2024-01-30T03:16:36;23.50;;;13.63;;
11522;SDS011;70090;43.208;27.904;2024-01-30T03:19:04;22.80;;;14.10;;
11522;SDS011;70090;43.208;27.904;2024-01-30T03:21:32;22.00;;;14.40;;
11522;SDS011;70090;43.208;27.904;2024-01-30T03:23:59;22.23;;;13.20;;
11522;SDS011;70090;43.208;27.904;2024-01-30T03:26:27;21.67;;;12.77;;
11522;SDS011;70090;43.208;27.904;2024-01-30T03:28:53;22.93;;;13.83;;
11522;SDS011;70090;43.208;27.904;2024-01-30T03:31:22;26.43;;;15.20;;
11522;SDS011;70090;43.208;27.904;2024-01-30T03:33:49;22.40;;;15.37;;
11522;SDS011;70090;43.208;27.904;2024-01-30T03:36:16;26.23;;;15.33;;
11522;SDS011;70090;43.208;27.904;2024-01-30T03:38:43;22.57;;;14.30;;
11522;SDS011;70090;43.208;27.904;2024-01-30T03:41:10;24.93;;;14.03;;
11522;SDS011;70090;43.208;27.904;2024-01-30T03:43:37;21.10;;;12.87;;
11522;SDS011;70090;43.208;27.904;2024-01-30T03:46:04;24.90;;;15.10;;
11522;SDS011;70090;43.208;27.904;2024-01-30T03:48:32;22.10;;;13.77;;
11522;SDS011;70090;43.208;27.904;2024-01-30T03:51:00;22.87;;;12.37;;
11522;SDS011;70090;43.208;27.904;2024-01-30T03:53:26;22.13;;;13.60;;
11522;SDS011;70090;43.208;27.904;2024-01-30T03:55:54;23.93;;;13.60;;
11522;SDS011;70090;43.208;27.904;2024-01-30T03:58:21;21.40;;;14.07;;
11522;SDS011;70090;43.208;27.904;2024-01-30T04:00:48;21.37;;;13.87;;
11522;SDS011;70090;43.208;27.904;2024-01-30T04:03:15;24.60;;;13.53;;
11522;SDS011;70090;43.208;27.904;2024-01-30T04:05:43;21.20;;;12.73;;
11522;SDS011;70090;43.208;27.904;2024-01-30T04:08:11;22.97;;;12.90;;
11522;SDS011;70090;43.208;27.904;2024-01-30T04:10:38;20.83;;;13.33;;
11522;SDS011;70090;43.208;27.904;2024-01-30T04:13:05;21.90;;;12.77;;
11522;SDS011;70090;43.208;27.904;2024-01-30T04:15:32;22.10;;;13.60;;
11522;SDS011;70090;43.208;27.904;2024-01-30T04:18:00;21.87;;;13.97;;
11522;SDS011;70090;43.208;27.904;2024-01-30T04:20:27;21.27;;;12.70;;
11522;SDS011;70090;43.208;27.904;2024-01-30T04:22:55;21.47;;;12.87;;
11522;SDS011;70090;43.208;27.904;2024-01-30T04:25:22;22.03;;;14.10;;
11522;SDS011;70090;43.208;27.904;2024-01-30T04:27:49;19.90;;;12.90;;
11522;SDS011;70090;43.208;27.904;2024-01-30T04:30:16;23.90;;;13.87;;
11522;SDS011;70090;43.208;27.904;2024-01-30T04:32:44;20.00;;;12.53;;
11522;SDS011;70090;43.208;27.904;2024-01-30T04:35:11;19.17;;;12.40;;
11522;SDS011;70090;43.208;27.904;2024-01-30T04:37:38;20.93;;;13.10;;
11522;SDS011;70090;43.208;27.904;2024-01-30T04:40:07;20.67;;;13.37;;
11522;SDS011;70090;43.208;27.904;2024-01-30T04:42:34;19.57;;;12.30;;
11522;SDS011;70090;43.208;27.904;2024-01-30T04:45:02;24.07;;;14.00;;
11522;SDS011;70090;43.208;27.904;2024-01-30T04:47:29;19.87;;;12.73;;
11522;SDS011;70090;43.208;27.904;2024-01-30T04:49:56;21.07;;;13.30;;
11522;SDS011;70090;43.208;27.904;2024-01-30T04:52:23;21.23;;;12.73;;
11522;SDS011;70090;43.208;27.904;2024-01-30T04:54:50;21.07;;;12.03;;
11522;SDS011;70090;43.208;27.904;2024-01-30T04:57:18;20.00;;;12.60;;
11522;SDS011;70090;43.208;27.904;2024-01-30T04:59:45;20.17;;;12.17;;
11522;SDS011;70090;43.208;27.904;2024-01-30T05:02:12;20.53;;;11.83;;
11522;SDS011;70090;43.208;27.904;2024-01-30T05:04:40;20.43;;;12.67;;
11522;SDS011;70090;43.208;27.904;2024-01-30T05:07:07;24.50;;;14.27;;
11522;SDS011;70090;43.208;27.904;2024-01-30T05:09:34;24.03;;;13.63;;
11522;SDS011;70090;43.208;27.904;2024-01-30T05:12:02;21.97;;;13.30;;
11522;SDS011;70090;43.208;27.904;2024-01-30T05:14:30;20.77;;;12.57;;
11522;SDS011;70090;43.208;27.904;2024-01-30T05:16:57;21.53;;;12.07;;
11522;SDS011;70090;43.208;27.904;2024-01-30T05:19:24;22.23;;;12.53;;
11522;SDS011;70090;43.208;27.904;2024-01-30T05:21:51;20.87;;;12.40;;
11522;SDS011;70090;43.208;27.904;2024-01-30T05:24:18;19.60;;;12.60;;
11522;SDS011;70090;43.208;27.904;2024-01-30T05:26:45;18.03;;;10.77;;
11522;SDS011;70090;43.208;27.904;2024-01-30T05:29:13;18.50;;;11.70;;
11522;SDS011;70090;43.208;27.904;2024-01-30T05:31:41;19.27;;;12.53;;
11522;SDS011;70090;43.208;27.904;2024-01-30T05:34:08;19.60;;;11.80;;
11522;SDS011;70090;43.208;27.904;2024-01-30T05:36:35;17.83;;;11.60;;
11522;SDS011;70090;43.208;27.904;2024-01-30T05:39:02;19.70;;;12.17;;
11522;SDS011;70090;43.208;27.904;2024-01-30T05:41:30;17.83;;;11.53;;
11522;SDS011;70090;43.208;27.904;2024-01-30T05:43:57;18.93;;;11.47;;
11522;SDS011;70090;43.208;27.904;2024-01-30T05:46:24;23.60;;;12.33;;
11522;SDS011;70090;43.208;27.904;2024-01-30T05:48:52;20.47;;;11.40;;
11522;SDS011;70090;43.208;27.904;2024-01-30T05:51:19;20.83;;;12.20;;
11522;SDS011;70090;43.208;27.904;2024-01-30T05:53:47;22.17;;;11.70;;
11522;SDS011;70090;43.208;27.904;2024-01-30T05:56:14;20.23;;;12.23;;
11522;SDS011;70090;43.208;27.904;2024-01-30T05:58:41;19.57;;;11.20;;
11522;SDS011;70090;43.208;27.904;2024-01-30T06:01:08;16.77;;;9.80;;
11522;SDS011;70090;43.208;27.904;2024-01-30T06:03:35;20.83;;;11.37;;
11522;SDS011;70090;43.208;27.904;2024-01-30T06:06:04;17.93;;;11.00;;
11522;SDS011;70090;43.208;27.904;2024-01-30T06:08:31;17.77;;;10.37;;
11522;SDS011;70090;43.208;27.904;2024-01-30T06:10:59;21.30;;;12.40;;
11522;SDS011;70090;43.208;27.904;2024-01-30T06:13:26;17.43;;;10.40;;
11522;SDS011;70090;43.208;27.904;2024-01-30T06:15:56;18.57;;;9.97;;
11522;SDS011;70090;43.208;27.904;2024-01-30T06:18:23;17.17;;;10.70;;
11522;SDS011;70090;43.208;27.904;2024-01-30T06:20:52;18.97;;;11.20;;
11522;SDS011;70090;43.208;27.904;2024-01-30T06:23:20;15.97;;;10.50;;
11522;SDS011;70090;43.208;27.904;2024-01-30T06:25:47;16.90;;;10.87;;
11522;SDS011;70090;43.208;27.904;2024-01-30T06:28:14;18.20;;;11.63;;
11522;SDS011;70090;43.208;27.904;2024-01-30T06:30:42;17.27;;;11.03;;
11522;SDS011;70090;43.208;27.904;2024-01-30T06:33:11;17.77;;;10.93;;
11522;SDS011;70090;43.208;27.904;2024-01-30T06:35:38;18.70;;;11.33;;
11522;SDS011;70090;43.208;27.904;2024-01-30T06:38:07;17.47;;;10.13;;
11522;SDS011;70090;43.208;27.904;2024-01-30T06:40:35;17.47;;;10.67;;
11522;SDS011;70090;43.208;27.904;2024-01-30T06:43:03;17.03;;;10.90;;
11522;SDS011;70090;43.208;27.904;2024-01-30T06:45:31;15.93;;;9.27;;
11522;SDS011;70090;43.208;27.904;2024-01-30T06:47:58;15.03;;;10.03;;
11522;SDS011;70090;43.208;27.904;2024-01-30T06:50:25;17.50;;;11.53;;
11522;SDS011;70090;43.208;27.904;2024-01-30T06:52:52;18.10;;;11.10;;
11522;SDS011;70090;43.208;27.904;2024-01-30T06:55:19;16.80;;;9.00;;
11522;SDS011;70090;43.208;27.904;2024-01-30T06:57:48;19.70;;;11.37;;
11522;SDS011;70090;43.208;27.904;2024-01-30T07:00:15;17.87;;;11.00;;
11522;SDS011;70090;43.208;27.904;2024-01-30T07:02:44;15.57;;;9.37;;
11522;SDS011;70090;43.208;27.904;2024-01-30T07:05:11;17.67;;;10.43;;
11522;SDS011;70090;43.208;27.904;2024-01-30T07:07:39;17.07;;;10.67;;
11522;SDS011;70090;43.208;27.904;2024-01-30T07:10:06;16.83;;;10.20;;
11522;SDS011;70090;43.208;27.904;2024-01-30T07:12:34;16.17;;;10.27;;
11522;SDS011;70090;43.208;27.904;2024-01-30T07:15:03;18.97;;;9.87;;
11522;SDS011;70090;43.208;27.904;2024-01-30T07:17:33;16.20;;;10.00;;
11522;SDS011;70090;43.208;27.904;2024-01-30T07:20:00;16.03;;;10.47;;
11522;SDS011;70090;43.208;27.904;2024-01-30T07:22:28;17.13;;;11.07;;
11522;SDS011;70090;43.208;27.904;2024-01-30T07:24:56;16.90;;;11.23;;
11522;SDS011;70090;43.208;27.904;2024-01-30T07:27:23;15.37;;;10.17;;
11522;SDS011;70090;43.208;27.904;2024-01-30T07:29:50;18.23;;;10.30;;
11522;SDS011;70090;43.208;27.904;2024-01-30T07:32:18;20.93;;;10.90;;
11522;SDS011;70090;43.208;27.904;2024-01-30T07:34:45;19.73;;;11.90;;
11522;SDS011;70090;43.208;27.904;2024-01-30T07:37:12;17.60;;;11.60;;
11522;SDS011;70090;43.208;27.904;2024-01-30T07:39:40;14.87;;;9.93;;
11522;SDS011;70090;43.208;27.904;2024-01-30T07:42:08;16.93;;;10.50;;
11522;SDS011;70090;43.208;27.904;2024-01-30T07:44:35;18.10;;;12.23;;
11522;SDS011;70090;43.208;27.904;2024-01-30T07:47:02;14.83;;;9.97;;
11522;SDS011;70090;43.208;27.904;2024-01-30T07:49:31;15.67;;;9.50;;
11522;SDS011;70090;43.208;27.904;2024-01-30T07:52:00;23.13;;;11.60;;
11522;SDS011;70090;43.208;27.904;2024-01-30T07:54:30;17.73;;;11.20;;
11522;SDS011;70090;43.208;27.904;2024-01-30T07:56:58;20.23;;;12.20;;
11522;SDS011;70090;43.208;27.904;2024-01-30T07:59:25;23.43;;;13.50;;
11522;SDS011;70090;43.208;27.904;2024-01-30T08:01:52;16.73;;;9.63;;
11522;SDS011;70090;43.208;27.904;2024-01-30T08:04:19;20.10;;;11.37;;
11522;SDS011;70090;43.208;27.904;2024-01-30T08:06:48;16.40;;;9.17;;
11522;SDS011;70090;43.208;27.904;2024-01-30T08:09:15;18.60;;;10.57;;
11522;SDS011;70090;43.208;27.904;2024-01-30T08:11:42;15.90;;;9.93;;
11522;SDS011;70090;43.208;27.904;2024-01-30T08:14:09;17.00;;;9.17;;
11522;SDS011;70090;43.208;27.904;2024-01-30T08:16:36;18.53;;;10.73;;
11522;SDS011;70090;43.208;27.904;2024-01-30T08:19:03;15.93;;;9.63;;
11522;SDS011;70090;43.208;27.904;2024-01-30T08:21:30;15.10;;;9.07;;
11522;SDS011;70090;43.208;27.904;2024-01-30T08:24:02;16.17;;;9.73;;
11522;SDS011;70090;43.208;27.904;2024-01-30T08:26:30;17.43;;;9.50;;
11522;SDS011;70090;43.208;27.904;2024-01-30T08:28:57;15.83;;;9.77;;
11522;SDS011;70090;43.208;27.904;2024-01-30T08:31:24;16.53;;;9.90;;
11522;SDS011;70090;43.208;27.904;2024-01-30T08:33:51;15.60;;;9.83;;
11522;SDS011;70090;43.208;27.904;2024-01-30T08:36:18;17.43;;;11.13;;
11522;SDS011;70090;43.208;27.904;2024-01-30T08:38:46;15.70;;;10.43;;
11522;SDS011;70090;43.208;27.904;2024-01-30T08:41:15;18.27;;;9.93;;
11522;SDS011;70090;43.208;27.904;2024-01-30T08:43:42;18.13;;;9.80;;
11522;SDS011;70090;43.208;27.904;2024-01-30T08:46:10;16.30;;;10.13;;
11522;SDS011;70090;43.208;27.904;2024-01-30T08:48:37;19.43;;;10.70;;
11522;SDS011;70090;43.208;27.904;2024-01-30T08:51:04;18.47;;;10.27;;
11522;SDS011;70090;43.208;27.904;2024-01-30T08:53:33;17.70;;;10.17;;
11522;SDS011;70090;43.208;27.904;2024-01-30T08:56:02;22.17;;;9.10;;
11522;SDS011;70090;43.208;27.904;2024-01-30T08:58:30;14.67;;;9.37;;
11522;SDS011;70090;43.208;27.904;2024-01-30T09:00:58;20.00;;;11.07;;
11522;SDS011;70090;43.208;27.904;2024-01-30T09:03:25;19.50;;;10.27;;
11522;SDS011;70090;43.208;27.904;2024-01-30T09:05:52;16.07;;;9.20;;
11522;SDS011;70090;43.208;27.904;2024-01-30T09:08:19;16.47;;;9.20;;
11522;SDS011;70090;43.208;27.904;2024-01-30T09:10:46;15.60;;;8.73;;
11522;SDS011;70090;43.208;27.904;2024-01-30T09:13:15;14.70;;;8.67;;
11522;SDS011;70090;43.208;27.904;2024-01-30T09:15:43;12.60;;;8.20;;
11522;SDS011;70090;43.208;27.904;2024-01-30T09:18:10;14.53;;;9.20;;
11522;SDS011;70090;43.208;27.904;2024-01-30T09:20:37;13.10;;;8.90;;
11522;SDS011;70090;43.208;27.904;2024-01-30T09:23:04;15.80;;;9.13;;
11522;SDS011;70090;43.208;27.904;2024-01-30T09:25:31;14.63;;;9.27;;
11522;SDS011;70090;43.208;27.904;2024-01-30T09:27:59;31.20;;;10.83;;
11522;SDS011;70090;43.208;27.904;2024-01-30T09:30:26;17.97;;;9.10;;
11522;SDS011;70090;43.208;27.904;2024-01-30T09:32:55;14.83;;;8.90;;
11522;SDS011;70090;43.208;27.904;2024-01-30T09:35:22;14.97;;;9.40;;
11522;SDS011;70090;43.208;27.904;2024-01-30T09:37:49;16.30;;;9.50;;
11522;SDS011;70090;43.208;27.904;2024-01-30T09:40:16;11.90;;;7.97;;
11522;SDS011;70090;43.208;27.904;2024-01-30T09:42:45;14.10;;;9.03;;
11522;SDS011;70090;43.208;27.904;2024-01-30T09:45:14;14.43;;;8.37;;
11522;SDS011;70090;43.208;27.904;2024-01-30T09:47:41;12.67;;;8.07;;
11522;SDS011;70090;43.208;27.904;2024-01-30T09:50:12;14.57;;;7.37;;
11522;SDS011;70090;43.208;27.904;2024-01-30T09:52:40;15.93;;;8.03;;
11522;SDS011;70090;43.208;27.904;2024-01-30T09:55:09;10.43;;;7.63;;
11522;SDS011;70090;43.208;27.904;2024-01-30T09:57:36;11.10;;;6.57;;
11522;SDS011;70090;43.208;27.904;2024-01-30T10:00:04;13.33;;;8.03;;
11522;SDS011;70090;43.208;27.904;2024-01-30T10:02:34;13.60;;;8.47;;
11522;SDS011;70090;43.208;27.904;2024-01-30T10:05:01;14.37;;;9.03;;
11522;SDS011;70090;43.208;27.904;2024-01-30T10:07:30;13.20;;;8.40;;
11522;SDS011;70090;43.208;27.904;2024-01-30T10:09:57;11.30;;;7.87;;
11522;SDS011;70090;43.208;27.904;2024-01-30T10:12:25;13.90;;;7.90;;
11522;SDS011;70090;43.208;27.904;2024-01-30T10:14:52;13.77;;;9.33;;
11522;SDS011;70090;43.208;27.904;2024-01-30T10:17:20;11.30;;;7.60;;
11522;SDS011;70090;43.208;27.904;2024-01-30T10:19:47;16.57;;;7.60;;
11522;SDS011;70090;43.208;27.904;2024-01-30T10:22:14;16.57;;;10.37;;
11522;SDS011;70090;43.208;27.904;2024-01-30T10:24:43;14.10;;;8.07;;
11522;SDS011;70090;43.208;27.904;2024-01-30T10:27:10;13.63;;;8.80;;
11522;SDS011;70090;43.208;27.904;2024-01-30T10:29:38;15.43;;;9.60;;
11522;SDS011;70090;43.208;27.904;2024-01-30T10:32:05;15.33;;;8.43;;
11522;SDS011;70090;43.208;27.904;2024-01-30T10:34:32;11.07;;;7.63;;
11522;SDS011;70090;43.208;27.904;2024-01-30T10:37:05;12.53;;;8.80;;
11522;SDS011;70090;43.208;27.904;2024-01-30T10:39:38;13.53;;;8.60;;
11522;SDS011;70090;43.208;27.904;2024-01-30T10:42:10;15.20;;;9.33;;
11522;SDS011;70090;43.208;27.904;2024-01-30T10:44:46;15.40;;;9.37;;
11522;SDS011;70090;43.208;27.904;2024-01-30T10:47:21;13.00;;;8.90;;
11522;SDS011;70090;43.208;27.904;2024-01-30T10:49:52;18.17;;;10.90;;
11522;SDS011;70090;43.208;27.904;2024-01-30T10:52:21;24.07;;;10.17;;
11522;SDS011;70090;43.208;27.904;2024-01-30T10:54:50;16.93;;;9.17;;
11522;SDS011;70090;43.208;27.904;2024-01-30T10:57:19;13.70;;;7.93;;
11522;SDS011;70090;43.208;27.904;2024-01-30T10:59:49;13.07;;;8.17;;
11522;SDS011;70090;43.208;27.904;2024-01-30T11:02:19;15.90;;;8.27;;
11522;SDS011;70090;43.208;27.904;2024-01-30T11:04:46;12.93;;;7.57;;
11522;SDS011;70090;43.208;27.904;2024-01-30T11:07:14;14.90;;;8.80;;
11522;SDS011;70090;43.208;27.904;2024-01-30T11:09:48;10.83;;;7.07;;
11522;SDS011;70090;43.208;27.904;2024-01-30T11:12:16;11.40;;;7.40;;
11522;SDS011;70090;43.208;27.904;2024-01-30T11:14:45;13.23;;;8.33;;
11522;SDS011;70090;43.208;27.904;2024-01-30T11:17:12;10.57;;;6.97;;
11522;SDS011;70090;43.208;27.904;2024-01-30T11:19:39;11.53;;;7.77;;
11522;SDS011;70090;43.208;27.904;2024-01-30T11:22:08;13.57;;;7.53;;
11522;SDS011;70090;43.208;27.904;2024-01-30T11:24:41;12.70;;;8.00;;
11522;SDS011;70090;43.208;27.904;2024-01-30T11:27:08;14.07;;;7.93;;
11522;SDS011;70090;43.208;27.904;2024-01-30T11:29:36;13.60;;;8.63;;
11522;SDS011;70090;43.208;27.904;2024-01-30T11:32:05;11.43;;;7.40;;
11522;SDS011;70090;43.208;27.904;2024-01-30T11:34:32;13.17;;;8.00;;
11522;SDS011;70090;43.208;27.904;2024-01-30T11:37:02;12.80;;;7.70;;
11522;SDS011;70090;43.208;27.904;2024-01-30T11:39:36;13.20;;;7.13;;
11522;SDS011;70090;43.208;27.904;2024-01-30T11:42:04;13.40;;;8.17;;
11522;SDS011;70090;43.208;27.904;2024-01-30T11:44:34;12.93;;;8.80;;
11522;SDS011;70090;43.208;27.904;2024-01-30T11:47:01;12.07;;;7.10;;
11522;SDS011;70090;43.208;27.904;2024-01-30T11:49:30;10.07;;;6.43;;
11522;SDS011;70090;43.208;27.904;2024-01-30T11:51:57;12.17;;;7.53;;
11522;SDS011;70090;43.208;27.904;2024-01-30T11:54:25;10.80;;;7.00;;
11522;SDS011;70090;43.208;27.904;2024-01-30T11:56:52;9.73;;;6.40;;
11522;SDS011;70090;43.208;27.904;2024-01-30T11:59:19;18.17;;;8.27;;
11522;SDS011;70090;43.208;27.904;2024-01-30T12:01:46;9.83;;;6.13;;
11522;SDS011;70090;43.208;27.904;2024-01-30T12:04:14;10.30;;;6.93;;
11522;SDS011;70090;43.208;27.904;2024-01-30T12:06:43;11.37;;;7.03;;
11522;SDS011;70090;43.208;27.904;2024-01-30T12:09:10;12.87;;;7.50;;
11522;SDS011;70090;43.208;27.904;2024-01-30T12:11:44;9.77;;;6.00;;
11522;SDS011;70090;43.208;27.904;2024-01-30T12:14:11;11.03;;;6.60;;
11522;SDS011;70090;43.208;27.904;2024-01-30T12:16:39;9.60;;;6.97;;
11522;SDS011;70090;43.208;27.904;2024-01-30T12:19:06;12.40;;;8.07;;
11522;SDS011;70090;43.208;27.904;2024-01-30T12:21:33;11.80;;;7.77;;
11522;SDS011;70090;43.208;27.904;2024-01-30T12:24:02;14.83;;;8.70;;
11522;SDS011;70090;43.208;27.904;2024-01-30T12:26:32;11.87;;;7.27;;
11522;SDS011;70090;43.208;27.904;2024-01-30T12:28:59;14.67;;;7.63;;
11522;SDS011;70090;43.208;27.904;2024-01-30T12:31:26;14.37;;;8.13;;
11522;SDS011;70090;43.208;27.904;2024-01-30T12:33:54;11.07;;;7.50;;
11522;SDS011;70090;43.208;27.904;2024-01-30T12:36:21;13.03;;;8.17;;
11522;SDS011;70090;43.208;27.904;2024-01-30T12:38:49;10.23;;;7.27;;
11522;SDS011;70090;43.208;27.904;2024-01-30T12:41:18;11.70;;;7.20;;
11522;SDS011;70090;43.208;27.904;2024-01-30T12:43:46;11.33;;;6.57;;
11522;SDS011;70090;43.208;27.904;2024-01-30T12:46:13;10.77;;;6.50;;
11522;SDS011;70090;43.208;27.904;2024-01-30T12:48:43;10.23;;;7.07;;
11522;SDS011;70090;43.208;27.904;2024-01-30T12:51:10;11.50;;;7.40;;
11522;SDS011;70090;43.208;27.904;2024-01-30T12:53:37;12.47;;;7.10;;
11522;SDS011;70090;43.208;27.904;2024-01-30T12:56:05;9.57;;;6.77;;
11522;SDS011;70090;43.208;27.904;2024-01-30T12:58:33;10.90;;;7.07;;
11522;SDS011;70090;43.208;27.904;2024-01-30T13:01:00;9.87;;;6.77;;
11522;SDS011;70090;43.208;27.904;2024-01-30T13:03:27;9.33;;;6.00;;
11522;SDS011;70090;43.208;27.904;2024-01-30T13:05:55;8.57;;;6.10;;
11522;SDS011;70090;43.208;27.904;2024-01-30T13:08:22;10.20;;;5.90;;
11522;SDS011;70090;43.208;27.904;2024-01-30T13:10:49;7.47;;;5.23;;
11522;SDS011;70090;43.208;27.904;2024-01-30T13:13:16;6.97;;;4.67;;
11522;SDS011;70090;43.208;27.904;2024-01-30T13:15:45;8.77;;;5.40;;
11522;SDS011;70090;43.208;27.904;2024-01-30T13:18:12;7.80;;;5.00;;
11522;SDS011;70090;43.208;27.904;2024-01-30T13:20:39;7.97;;;4.57;;
11522;SDS011;70090;43.208;27.904;2024-01-30T13:23:06;6.67;;;4.70;;
11522;SDS011;70090;43.208;27.904;2024-01-30T13:25:33;6.93;;;5.00;;
11522;SDS011;70090;43.208;27.904;2024-01-30T13:28:00;6.73;;;4.27;;
11522;SDS011;70090;43.208;27.904;2024-01-30T13:30:27;6.83;;;4.37;;
11522;SDS011;70090;43.208;27.904;2024-01-30T13:32:56;6.23;;;4.40;;
11522;SDS011;70090;43.208;27.904;2024-01-30T13:35:23;8.83;;;4.83;;
11522;SDS011;70090;43.208;27.904;2024-01-30T13:37:50;7.00;;;4.50;;
11522;SDS011;70090;43.208;27.904;2024-01-30T13:40:17;6.70;;;4.20;;
11522;SDS011;70090;43.208;27.904;2024-01-30T13:42:44;9.90;;;5.40;;
11522;SDS011;70090;43.208;27.904;2024-01-30T13:45:11;8.93;;;4.83;;
11522;SDS011;70090;43.208;27.904;2024-01-30T13:47:38;6.53;;;4.50;;
11522;SDS011;70090;43.208;27.904;2024-01-30T13:50:07;9.23;;;5.57;;
11522;SDS011;70090;43.208;27.904;2024-01-30T13:52:36;9.30;;;6.10;;
11522;SDS011;70090;43.208;27.904;2024-01-30T13:55:03;10.40;;;6.07;;
11522;SDS011;70090;43.208;27.904;2024-01-30T13:57:30;7.67;;;5.30;;
11522;SDS011;70090;43.208;27.904;2024-01-30T14:00:01;10.43;;;5.10;;
11522;SDS011;70090;43.208;27.904;2024-01-30T14:02:28;6.90;;;4.00;;
11522;SDS011;70090;43.208;27.904;2024-01-30T14:04:55;8.33;;;5.17;;
11522;SDS011;70090;43.208;27.904;2024-01-30T14:07:23;10.80;;;4.73;;
11522;SDS011;70090;43.208;27.904;2024-01-30T14:09:51;8.20;;;4.70;;
11522;SDS011;70090;43.208;27.904;2024-01-30T14:12:18;5.63;;;3.90;;
11522;SDS011;70090;43.208;27.904;2024-01-30T14:14:45;8.30;;;4.93;;
11522;SDS011;70090;43.208;27.904;2024-01-30T14:17:12;5.63;;;4.30;;
11522;SDS011;70090;43.208;27.904;2024-01-30T14:19:39;8.70;;;5.40;;